createdAt,value
2023-05-24T00:01:46.047Z,23.40
2023-05-24T00:04:48.563Z,23.30
2023-05-24T00:07:52.612Z,23.20
2023-05-24T00:10:54.270Z,23.30
2023-05-24T00:13:58.660Z,23.30
2023-05-24T00:17:03.456Z,23.20
2023-05-24T00:20:07.489Z,23.20
2023-05-24T00:23:09.699Z,23.20
2023-05-24T00:26:12.557Z,23.20
2023-05-24T00:29:18.202Z,22.80
2023-05-24T00:32:19.914Z,23.20
2023-05-24T00:35:23.922Z,23.10
2023-05-24T00:38:26.247Z,23.20
2023-05-24T00:41:27.982Z,23.10
2023-05-24T00:44:29.714Z,23.10
2023-05-24T00:47:31.208Z,23.20
2023-05-24T00:50:33.312Z,23.20
2023-05-24T00:53:36.708Z,23.10
2023-05-24T00:56:38.147Z,22.70
2023-05-24T00:59:39.647Z,22.90
2023-05-24T01:02:41.140Z,23.20
2023-05-24T01:05:43.195Z,23.00
2023-05-24T01:09:01.038Z,23.10
2023-05-24T01:12:19.067Z,23.00
2023-05-24T01:15:29.150Z,23.10
2023-05-24T01:18:32.900Z,23.00
2023-05-24T01:21:48.540Z,23.10
2023-05-24T01:25:04.707Z,22.90
2023-05-24T01:28:08.436Z,22.90
2023-05-24T01:31:14.919Z,23.00
2023-05-24T01:34:16.303Z,22.90
2023-05-24T01:37:17.631Z,22.80
2023-05-24T01:40:19.470Z,23.10
2023-05-24T01:43:29.499Z,22.90
2023-05-24T01:46:36.629Z,22.80
2023-05-24T01:49:42.116Z,23.70
2023-05-24T01:52:46.033Z,22.80
2023-05-24T01:55:50.994Z,22.60
2023-05-24T01:58:56.294Z,22.80
2023-05-24T02:01:57.874Z,22.40
2023-05-24T02:04:59.798Z,22.90
2023-05-24T02:08:01.473Z,22.40
2023-05-24T02:11:03.628Z,22.70
2023-05-24T02:14:06.092Z,22.70
2023-05-24T02:17:08.665Z,22.50
2023-05-24T02:20:12.591Z,22.70
2023-05-24T02:23:14.027Z,22.80
2023-05-24T02:26:16.966Z,22.70
2023-05-24T02:29:18.944Z,22.70
2023-05-24T02:32:20.388Z,22.70
2023-05-24T02:35:22.426Z,22.60
2023-05-24T02:38:23.835Z,22.00
2023-05-24T02:41:25.670Z,22.50
2023-05-24T02:44:28.012Z,22.90
2023-05-24T02:47:29.889Z,22.60
2023-05-24T02:50:31.408Z,22.70
2023-05-24T02:53:33.264Z,22.60
2023-05-24T02:56:34.804Z,22.50
2023-05-24T02:59:37.667Z,22.70
2023-05-24T03:02:41.661Z,22.70
2023-05-24T03:05:43.277Z,22.50
2023-05-24T03:08:45.222Z,22.70
2023-05-24T03:11:47.960Z,22.50
2023-05-24T03:14:52.876Z,22.60
2023-05-24T03:17:54.723Z,22.30
2023-05-24T03:20:56.738Z,22.30
2023-05-24T03:23:58.179Z,22.50
2023-05-24T03:27:03.861Z,22.50
2023-05-24T03:30:07.117Z,22.50
2023-05-24T03:33:16.147Z,22.60
2023-05-24T03:36:19.852Z,22.60
2023-05-24T03:39:21.795Z,22.10
2023-05-24T03:42:33.064Z,22.10
2023-05-24T03:45:39.775Z,22.70
2023-05-24T03:48:41.736Z,22.60
2023-05-24T03:51:48.195Z,22.10
2023-05-24T03:54:49.862Z,22.60
2023-05-24T03:57:51.382Z,22.50
2023-05-24T04:00:53.458Z,22.50
2023-05-24T04:03:55.574Z,22.50
2023-05-24T04:07:00.365Z,22.50
2023-05-24T04:10:03.973Z,22.40
2023-05-24T04:13:06.180Z,22.20
2023-05-24T04:16:13.215Z,22.40
2023-05-24T04:19:14.769Z,22.10
2023-05-24T04:22:19.359Z,22.50
2023-05-24T04:25:23.015Z,23.30
2023-05-24T04:28:25.464Z,22.50
2023-05-24T04:31:29.457Z,22.50
2023-05-24T04:34:32.936Z,22.10
2023-05-24T04:37:35.416Z,21.20
2023-05-24T04:40:40.506Z,22.30
2023-05-24T04:43:43.178Z,22.30
2023-05-24T04:46:45.219Z,22.30
2023-05-24T04:49:46.826Z,22.50
2023-05-24T04:52:48.236Z,22.40
2023-05-24T04:55:52.383Z,22.20
2023-05-24T04:58:53.811Z,22.40
2023-05-24T05:01:56.367Z,21.90
2023-05-24T05:04:57.877Z,22.40
2023-05-24T05:07:59.119Z,22.00
2023-05-24T05:11:00.801Z,22.20
2023-05-24T05:14:02.632Z,22.40
2023-05-24T05:17:05.134Z,22.40
2023-05-24T05:20:07.628Z,22.40
2023-05-24T05:23:09.088Z,22.30
2023-05-24T05:26:10.686Z,22.20
2023-05-24T05:29:12.122Z,22.20
2023-05-24T05:32:14.283Z,22.10
2023-05-24T05:35:15.754Z,22.10
2023-05-24T05:38:17.028Z,22.00
2023-05-24T05:41:18.592Z,22.20
2023-05-24T05:44:19.948Z,22.20
2023-05-24T05:47:22.457Z,20.90
2023-05-24T05:50:24.388Z,21.60
2023-05-24T05:53:25.903Z,22.00
2023-05-24T05:56:27.873Z,21.70
2023-05-24T05:59:29.571Z,22.10
2023-05-24T06:02:31.594Z,22.10
2023-05-24T06:05:33.462Z,21.80
2023-05-24T06:08:35.752Z,20.60
2023-05-24T06:11:38.960Z,21.80
2023-05-24T06:14:40.383Z,21.80
2023-05-24T06:17:43.160Z,22.30
2023-05-24T06:20:45.144Z,22.60
2023-05-24T06:23:48.138Z,22.20
2023-05-24T06:26:51.971Z,22.00
2023-05-24T06:29:53.625Z,22.20
2023-05-24T06:32:56.039Z,22.40
2023-05-24T06:35:57.993Z,22.30
2023-05-24T06:38:59.680Z,22.40
2023-05-24T06:42:04.328Z,22.40
2023-05-24T06:45:11.394Z,22.40
2023-05-24T06:48:15.787Z,22.30
2023-05-24T06:51:17.433Z,23.30
2023-05-24T06:54:18.856Z,22.40
2023-05-24T06:57:21.106Z,22.40
2023-05-24T07:00:22.766Z,22.30
2023-05-24T07:03:24.900Z,21.50
2023-05-24T07:06:28.862Z,22.10
2023-05-24T07:09:30.178Z,22.30
2023-05-24T07:12:32.143Z,22.40
2023-05-24T07:15:36.539Z,22.30
2023-05-24T07:18:40.687Z,22.30
2023-05-24T07:21:47.775Z,22.60
2023-05-24T07:25:02.422Z,20.40
2023-05-24T07:28:04.904Z,21.10
2023-05-24T07:31:09.064Z,22.30
2023-05-24T07:34:12.354Z,22.80
2023-05-24T07:37:15.972Z,22.40
2023-05-24T07:40:17.562Z,23.70
2023-05-24T07:43:19.092Z,22.70
2023-05-24T07:46:21.062Z,22.70
2023-05-24T07:49:23.464Z,22.70
2023-05-24T07:52:25.999Z,22.90
2023-05-24T07:55:27.643Z,22.80
2023-05-24T07:58:29.060Z,22.90
2023-05-24T08:01:30.613Z,22.80
2023-05-24T08:04:32.676Z,22.80
2023-05-24T08:07:34.386Z,22.50
2023-05-24T08:10:36.141Z,22.90
2023-05-24T08:13:37.521Z,22.80
2023-05-24T08:16:39.000Z,22.80
2023-05-24T08:19:40.979Z,23.20
2023-05-24T08:22:43.136Z,22.90
2023-05-24T08:25:46.664Z,23.00
2023-05-24T08:28:48.068Z,23.00
2023-05-24T08:31:49.403Z,23.10
2023-05-24T08:34:55.810Z,22.60
2023-05-24T08:38:02.318Z,21.40
2023-05-24T08:41:06.489Z,23.00
2023-05-24T08:44:08.064Z,23.00
2023-05-24T08:47:10.255Z,22.50
2023-05-24T08:50:12.855Z,23.20
2023-05-24T08:53:15.284Z,22.70
2023-05-24T08:56:17.944Z,23.10
2023-05-24T08:59:20.781Z,23.20
2023-05-24T09:02:23.053Z,23.20
2023-05-24T09:05:26.610Z,22.90
2023-05-24T09:08:28.438Z,24.20
2023-05-24T09:11:31.951Z,23.20
2023-05-24T09:14:33.643Z,23.10
2023-05-24T09:17:35.924Z,23.10
2023-05-24T09:20:38.024Z,22.90
2023-05-24T09:23:40.790Z,23.30
2023-05-24T09:26:42.287Z,23.10
2023-05-24T09:29:45.539Z,23.30
2023-05-24T09:32:56.329Z,23.20
2023-05-24T09:36:00.199Z,22.90
2023-05-24T09:39:08.324Z,23.00
2023-05-24T09:42:15.205Z,23.20
2023-05-24T09:45:18.120Z,23.20
2023-05-24T09:49:03.129Z,23.10
2023-05-24T09:52:04.881Z,23.10
2023-05-24T09:55:14.977Z,23.20
2023-05-24T09:58:16.824Z,23.20
2023-05-24T10:01:24.533Z,23.20
2023-05-24T10:04:33.426Z,23.30
2023-05-24T10:07:35.648Z,23.30
2023-05-24T10:10:38.415Z,23.30
2023-05-24T10:13:43.061Z,23.30
2023-05-24T10:16:44.796Z,23.30
2023-05-24T10:19:46.812Z,23.30
2023-05-24T10:22:53.469Z,23.30
2023-05-24T10:26:03.356Z,23.30
2023-05-24T10:29:10.729Z,23.30
2023-05-24T10:32:13.567Z,23.30
2023-05-24T10:35:17.475Z,23.40
2023-05-24T10:38:21.845Z,23.40
2023-05-24T10:41:26.602Z,23.40
2023-05-24T10:44:31.081Z,23.40
2023-05-24T10:47:40.316Z,23.40
2023-05-24T10:50:45.202Z,23.50
2023-05-24T10:53:49.032Z,23.50
2023-05-24T10:56:51.453Z,23.50
2023-05-24T10:59:58.638Z,23.50
2023-05-24T11:03:01.571Z,23.50
2023-05-24T11:06:04.059Z,23.50
2023-05-24T11:09:11.975Z,23.50
2023-05-24T11:12:16.490Z,23.50
2023-05-24T11:15:26.619Z,23.50
2023-05-24T11:18:28.148Z,23.40
2023-05-24T11:21:31.557Z,23.40
2023-05-24T11:24:37.405Z,23.40
2023-05-24T11:27:43.311Z,23.40
2023-05-24T11:30:46.620Z,23.30
2023-05-24T11:33:50.982Z,23.40
2023-05-24T11:36:54.381Z,23.30
2023-05-24T11:39:57.922Z,23.30
2023-05-24T11:42:59.957Z,23.40
2023-05-24T11:46:03.700Z,23.40
2023-05-24T11:49:06.977Z,23.40
2023-05-24T11:52:09.218Z,23.50
2023-05-24T11:55:15.564Z,23.50
2023-05-24T11:58:22.997Z,23.40
2023-05-24T12:01:27.847Z,23.50
2023-05-24T12:04:30.440Z,24.70
2023-05-24T12:07:33.461Z,23.00
2023-05-24T12:10:35.726Z,23.70
2023-05-24T12:13:40.086Z,23.80
2023-05-24T12:16:43.144Z,22.90
2023-05-24T12:19:48.183Z,24.10
2023-05-24T12:22:54.885Z,23.50
2023-05-24T12:25:59.444Z,20.90
2023-05-24T12:29:03.672Z,23.60
2023-05-24T12:32:11.371Z,24.10
2023-05-24T12:35:13.622Z,23.40
2023-05-24T12:38:24.475Z,23.80
2023-05-24T12:41:29.534Z,24.80
2023-05-24T12:44:36.865Z,22.30
2023-05-24T12:47:39.404Z,26.60
2023-05-24T12:50:41.599Z,22.70
2023-05-24T12:53:47.687Z,22.80
2023-05-24T12:56:50.170Z,24.40
2023-05-24T12:59:52.284Z,22.40
2023-05-24T13:03:00.340Z,21.70
2023-05-24T13:06:02.056Z,21.90
2023-05-24T13:09:05.740Z,24.40
2023-05-24T13:12:08.358Z,23.90
2023-05-24T13:15:10.833Z,24.00
2023-05-24T13:18:19.107Z,23.50
2023-05-24T13:21:22.589Z,25.00
2023-05-24T13:24:25.054Z,22.40
2023-05-24T13:27:27.195Z,23.70
2023-05-24T13:30:29.614Z,23.80
2023-05-24T13:34:00.079Z,24.70
2023-05-24T13:37:03.075Z,22.00
2023-05-24T13:40:11.132Z,22.70
2023-05-24T13:43:13.537Z,21.40
2023-05-24T13:47:06.081Z,23.70
2023-05-24T13:50:28.774Z,24.30
2023-05-24T13:53:30.993Z,24.50
2023-05-24T13:56:37.925Z,21.00
2023-05-24T13:59:41.104Z,22.00
2023-05-24T14:02:42.971Z,24.10
2023-05-24T14:05:44.982Z,22.40
2023-05-24T14:08:48.249Z,23.70
2023-05-24T14:11:50.878Z,25.70
2023-05-24T14:18:00.626Z,23.60
2023-05-24T14:21:02.175Z,24.50
2023-05-24T14:24:03.969Z,24.00
2023-05-24T14:27:06.456Z,24.00
2023-05-24T14:30:12.024Z,23.40
2023-05-24T14:33:13.736Z,24.30
2023-05-24T14:36:15.427Z,24.40
2023-05-24T14:39:16.839Z,24.40
2023-05-24T14:42:18.846Z,24.40
2023-05-24T14:45:20.691Z,23.90
2023-05-24T14:48:22.214Z,24.40
2023-05-24T14:51:23.826Z,24.40
2023-05-24T14:54:25.585Z,24.50
2023-05-24T14:57:27.569Z,25.30
2023-05-24T15:00:29.334Z,24.60
2023-05-24T15:03:31.114Z,24.50
2023-05-24T15:06:34.497Z,24.40
2023-05-24T15:09:35.957Z,24.50
2023-05-24T15:12:38.001Z,24.50
2023-05-24T15:15:42.525Z,24.30
2023-05-24T15:18:44.099Z,24.50
2023-05-24T15:21:45.528Z,24.60
2023-05-24T15:24:47.052Z,24.60
2023-05-24T15:27:49.065Z,24.50
2023-05-24T15:30:53.296Z,24.60
2023-05-24T15:33:54.923Z,24.40
2023-05-24T15:36:56.399Z,24.50
2023-05-24T15:39:57.791Z,23.90
2023-05-24T15:42:59.922Z,24.60
2023-05-24T15:46:02.756Z,24.50
2023-05-24T15:49:07.141Z,24.60
2023-05-24T15:52:09.917Z,24.70
2023-05-24T15:55:11.699Z,24.40
2023-05-24T15:58:14.868Z,24.50
2023-05-24T16:01:16.419Z,24.40
2023-05-24T16:04:18.400Z,24.40
2023-05-24T16:07:19.928Z,24.50
2023-05-24T16:10:21.326Z,24.50
2023-05-24T16:13:23.525Z,24.90
2023-05-24T16:16:28.309Z,24.50
2023-05-24T16:19:30.293Z,24.50
2023-05-24T16:22:34.094Z,24.50
2023-05-24T16:25:36.767Z,24.50
2023-05-24T16:28:38.797Z,24.50
2023-05-24T16:31:40.653Z,24.50
2023-05-24T16:34:56.146Z,24.50
2023-05-24T16:37:58.578Z,24.60
2023-05-24T16:41:00.059Z,24.60
2023-05-24T16:44:02.467Z,24.40
2023-05-24T16:47:04.097Z,24.60
2023-05-24T16:50:08.993Z,24.60
2023-05-24T16:53:10.713Z,24.70
2023-05-24T16:56:12.108Z,24.60
2023-05-24T16:59:16.244Z,24.60
2023-05-24T17:02:17.736Z,24.60
2023-05-24T17:05:19.302Z,24.50
2023-05-24T17:08:22.809Z,24.50
2023-05-24T17:11:27.222Z,24.60
2023-05-24T17:14:29.225Z,24.60
2023-05-24T17:17:30.694Z,24.60
2023-05-24T17:20:32.221Z,24.60
2023-05-24T17:23:35.807Z,24.60
2023-05-24T17:26:38.169Z,24.50
2023-05-24T17:29:43.706Z,24.60
2023-05-24T17:32:45.605Z,24.70
2023-05-24T17:35:47.538Z,24.40
2023-05-24T17:38:48.953Z,24.80
2023-05-24T17:41:50.667Z,24.70
2023-05-24T17:44:52.941Z,24.70
2023-05-24T17:47:54.583Z,24.60
2023-05-24T17:50:56.406Z,24.80
2023-05-24T17:53:57.820Z,24.70
2023-05-24T17:56:59.198Z,24.70
2023-05-24T18:00:02.188Z,24.80
2023-05-24T18:03:04.096Z,24.80
2023-05-24T18:06:06.579Z,24.30
2023-05-24T18:09:08.676Z,24.90
2023-05-24T18:12:10.857Z,24.90
2023-05-24T18:15:13.065Z,24.80
2023-05-24T18:18:15.319Z,24.90
2023-05-24T18:21:16.779Z,24.90
2023-05-24T18:24:21.109Z,24.90
2023-05-24T18:27:22.590Z,24.90
2023-05-24T18:30:26.163Z,24.90
2023-05-24T18:33:27.620Z,25.00
2023-05-24T18:36:29.304Z,25.00
2023-05-24T18:39:30.745Z,25.00
2023-05-24T18:42:32.132Z,25.10
2023-05-24T18:45:34.255Z,25.10
2023-05-24T18:48:35.704Z,25.10
2023-05-24T18:51:37.216Z,24.90
2023-05-24T18:54:38.655Z,24.80
2023-05-24T18:57:40.039Z,25.00
2023-05-24T19:00:42.071Z,25.10
2023-05-24T19:03:43.519Z,25.10
2023-05-24T19:06:45.132Z,25.10
2023-05-24T19:09:46.740Z,25.10
2023-05-24T19:12:48.158Z,24.90
2023-05-24T19:15:50.177Z,25.10
2023-05-24T19:18:51.813Z,25.00
2023-05-24T19:21:53.249Z,24.80
2023-05-24T19:24:57.259Z,25.00
2023-05-24T19:28:01.554Z,24.90
2023-05-24T19:31:03.741Z,25.00
2023-05-24T19:34:05.261Z,25.00
2023-05-24T19:37:08.161Z,25.00
2023-05-24T19:40:11.799Z,24.90
2023-05-24T19:43:13.214Z,24.90
2023-05-24T19:46:16.420Z,25.00
2023-05-24T19:49:18.385Z,24.70
2023-05-24T19:52:20.429Z,25.00
2023-05-24T19:55:23.790Z,24.90
2023-05-24T19:58:25.353Z,24.90
2023-05-24T20:01:27.435Z,24.90
2023-05-24T20:04:28.813Z,25.00
2023-05-24T20:07:30.840Z,24.90
2023-05-24T20:10:36.594Z,24.90
2023-05-24T20:13:38.361Z,24.80
2023-05-24T20:16:40.643Z,24.70
2023-05-24T20:19:42.214Z,24.70
2023-05-24T20:22:43.636Z,24.70
2023-05-24T20:25:46.565Z,24.70
2023-05-24T20:28:51.079Z,24.70
2023-05-24T20:31:53.143Z,24.60
2023-05-24T20:34:54.667Z,24.40
2023-05-24T20:37:56.336Z,24.60
2023-05-24T20:40:57.731Z,24.50
2023-05-24T20:43:59.606Z,24.40
2023-05-24T20:47:01.725Z,24.40
2023-05-24T20:50:03.472Z,24.40
2023-05-24T20:53:05.655Z,24.40
2023-05-24T20:56:08.817Z,24.40
2023-05-24T20:59:10.359Z,24.30
2023-05-24T21:02:12.616Z,24.30
2023-05-24T21:05:14.167Z,24.30
2023-05-24T21:08:15.741Z,24.20
2023-05-24T21:11:17.171Z,24.10
2023-05-24T21:14:18.629Z,24.20
2023-05-24T21:17:20.752Z,24.30
2023-05-24T21:20:22.231Z,24.30
2023-05-24T21:23:26.828Z,24.30
2023-05-24T21:26:28.292Z,24.10
2023-05-24T21:29:29.862Z,24.30
2023-05-24T21:32:31.894Z,24.10
2023-05-24T21:35:33.452Z,24.10
2023-05-24T21:38:34.997Z,24.20
2023-05-24T21:41:38.877Z,24.10
2023-05-24T21:44:40.306Z,23.80
2023-05-24T21:47:42.786Z,24.10
2023-05-24T21:50:46.004Z,24.00
2023-05-24T21:53:49.175Z,24.10
2023-05-24T21:56:50.565Z,24.10
2023-05-24T21:59:52.196Z,24.00
2023-05-24T22:02:54.280Z,24.10
2023-05-24T22:05:55.833Z,23.70
2023-05-24T22:09:01.042Z,24.10
2023-05-24T22:12:02.665Z,24.00
2023-05-24T22:15:07.797Z,23.80
2023-05-24T22:18:16.624Z,24.00
2023-05-24T22:21:21.920Z,24.00
2023-05-24T22:24:23.436Z,24.00
2023-05-24T22:27:25.048Z,23.90
2023-05-24T22:30:26.744Z,23.60
2023-05-24T22:33:28.987Z,24.00
2023-05-24T22:36:32.885Z,24.00
2023-05-24T22:39:34.496Z,23.90
2023-05-24T22:42:36.023Z,23.90
2023-05-24T22:45:37.417Z,23.60
2023-05-24T22:48:39.837Z,23.90
2023-05-24T22:51:43.288Z,23.80
2023-05-24T22:54:44.908Z,23.70
2023-05-24T22:57:46.319Z,23.90
2023-05-24T23:00:47.972Z,23.90
2023-05-24T23:03:50.366Z,23.60
2023-05-24T23:06:53.628Z,23.70
2023-05-24T23:09:55.348Z,23.60
2023-05-24T23:12:57.286Z,23.70
2023-05-24T23:15:59.173Z,23.70
2023-05-24T23:19:01.155Z,23.70
2023-05-24T23:22:02.794Z,23.70
2023-05-24T23:25:09.117Z,23.60
2023-05-24T23:28:10.492Z,23.60
2023-05-24T23:31:14.081Z,23.60
2023-05-24T23:34:19.307Z,23.60
2023-05-24T23:37:20.815Z,23.70
2023-05-24T23:40:22.386Z,23.70
2023-05-24T23:43:23.798Z,23.50
2023-05-24T23:46:25.293Z,23.50
2023-05-24T23:49:27.671Z,23.30
2023-05-24T23:52:29.174Z,23.70
2023-05-24T23:55:30.810Z,23.50
2023-05-24T23:58:36.615Z,23.20
